• Join FlightAware (Why Join?)
  • Login
  • US Flag 
06:13AM EDT


 

Airport Tracker/Info


-or-


 

Live Flight TrackerFlight Track Log ✈ N9246F ✈ 29-May-2014 ✈ KVRB - KTIX

Flight Track Log - Related Links

Times and Time Zones

All times are in EDT time to prevent confusion due to time zone crossing. See the N9246F flight status page for this flight to view local times or setup timezone preferences in your user account.

Time Position Orientation Groundspeed Altitude Reporting Facility
EDT Latitude Longitude Course Direction KTS MPH feet Rate Location/Type
09:32AM 27.6514 -80.4072 87° East 125 144 400  Level Miami Center
09:33AM 27.6522 -80.3869 87° East 83 96 900 540 Climbing Miami Center
09:34AM 27.6786 -80.3831 North 93 107 1,600 540 Climbing Miami Center
09:35AM 27.7053 -80.3778 10° North 92 106 2,100 480 Climbing Miami Center
09:36AM 27.7339 -80.3725 North 98 113 2,600 420 Climbing Miami Center
09:37AM 27.7631 -80.3725 360° North 99 114 3,000 120 Climbing Miami Center
09:38AM 27.7944 -80.3786 350° North 115 132 2,900  Descending Miami Center
09:39AM 27.8278 -80.3844 351° North 115 132 3,000  Climbing Miami Center
09:40AM 27.8636 -80.3914 350° North 120 138 2,900  Descending Miami Center
09:41AM 27.8958 -80.3975 350° North 120 138 3,000  Climbing Miami Center
09:42AM 27.9286 -80.4006 355° North 120 138 3,000  Level Miami Center
09:43AM 27.9544 -80.4217 324° Northwest 120 138 3,000  Level Miami Center
09:44AM 27.9778 -80.4472 316° Northwest 119 137 3,000  Level Miami Center
09:45AM 28.0017 -80.4742 315° West 120 138 3,000  Level Miami Center
09:46AM 28.0292 -80.5058 315° West 119 137 3,000  Level Miami Center
09:47AM 28.0531 -80.5336 314° West 119 137 3,000  Level Miami Center
09:48AM 28.0758 -80.5583 316° Northwest 119 137 3,000 180 Level Miami Center
09:49AM 28.0989 -80.5847 315° West 116 133 3,400 420 Climbing Miami Center
09:50AM 28.1189 -80.6081 314° West 104 120 3,900 240 Climbing Miami Center
09:51AM 28.1389 -80.6292 317° Northwest 108 124 4,000 -120 Climbing Miami Center
09:52AM 28.1500 -80.6500 301° West 114 131 3,700 -540 Descending Orlando TRACON
09:53AM 28.1833 -80.6667 336° Northwest 112 129 3,200 -420 Descending Orlando TRACON
09:54AM 28.2000 -80.7000 300° West 116 133 3,000 -180 Descending Orlando TRACON
09:55AM 28.2167 -80.7167 319° Northwest 115 132 2,900  Descending Orlando TRACON
09:56AM 28.2500 -80.7500 319° Northwest 118 136 3,000 -120 Climbing Orlando TRACON
09:57AM 28.2667 -80.7667 319° Northwest 112 129 2,700 -420 Descending Orlando TRACON
09:58AM 28.3000 -80.7833 336° Northwest 113 130 2,200 -360 Descending Orlando TRACON
09:59AM 28.3167 -80.8000 319° Northwest 115 132 2,100 -60 Descending Orlando TRACON
10:00AM 28.3333 -80.8167 319° Northwest 113 130 2,100  Level Orlando TRACON
10:01AM 28.3333 -80.8333 270° West 105 121 2,100  Level Orlando TRACON
10:02AM 28.3500 -80.8000 60° Northeast 120 138 2,200  Climbing Orlando TRACON
10:03AM 28.3667 -80.8000 360° North 111 128 2,100 -60 Descending Orlando TRACON
10:04AM 28.4000 -80.8000 360° North 108 124 2,100 -300 Level Orlando TRACON
10:05AM 28.4333 -80.8000 360° North 93 107 1,600 -480 Descending Orlando TRACON
10:06AM 28.4500 -80.8000 360° North 79 91 1,100 -480 Descending Orlando TRACON
10:07AM 28.4667 -80.8000 360° North 76 87 700 -180 Descending Orlando TRACON
10:09AM 28.5167 -80.8000 360° North 88 101 700 180 Level Orlando TRACON
10:10AM 28.5167 -80.8333 270° West 85 98 1,400 540 Climbing Orlando TRACON
10:11AM 28.5167 -80.8667 270° West 91 105 1,800 420 Climbing Orlando TRACON
10:12AM 28.4833 -80.8833 204° Southwest 85 98 2,400 480 Climbing Orlando TRACON